sensor_id;sensor_type;location;lat;lon;timestamp;temperature;humidity
5560;DHT22;2803;47.916;8.074;2022-09-09T00:01:40;16.40;99.90
5560;DHT22;2803;47.916;8.074;2022-09-09T00:04:13;16.60;99.90
5560;DHT22;2803;47.916;8.074;2022-09-09T00:06:46;16.60;99.90
5560;DHT22;2803;47.916;8.074;2022-09-09T00:09:18;16.10;99.90
5560;DHT22;2803;47.916;8.074;2022-09-09T00:11:49;15.90;99.90
5560;DHT22;2803;47.916;8.074;2022-09-09T00:14:22;16.50;99.90
5560;DHT22;2803;47.916;8.074;2022-09-09T00:16:54;16.50;99.90
5560;DHT22;2803;47.916;8.074;2022-09-09T00:19:26;16.30;99.90
5560;DHT22;2803;47.916;8.074;2022-09-09T00:22:05;16.20;99.90
5560;DHT22;2803;47.916;8.074;2022-09-09T00:24:38;15.70;99.90
5560;DHT22;2803;47.916;8.074;2022-09-09T00:27:11;16.00;99.90
5560;DHT22;2803;47.916;8.074;2022-09-09T00:29:44;16.40;99.90
5560;DHT22;2803;47.916;8.074;2022-09-09T00:32:14;16.50;99.90
5560;DHT22;2803;47.916;8.074;2022-09-09T00:34:47;16.10;99.90
5560;DHT22;2803;47.916;8.074;2022-09-09T00:37:16;16.00;99.90
5560;DHT22;2803;47.916;8.074;2022-09-09T00:39:45;16.30;99.90
5560;DHT22;2803;47.916;8.074;2022-09-09T00:42:15;16.50;99.90
5560;DHT22;2803;47.916;8.074;2022-09-09T00:44:54;16.30;99.90
5560;DHT22;2803;47.916;8.074;2022-09-09T00:47:39;16.20;99.90
5560;DHT22;2803;47.916;8.074;2022-09-09T00:50:21;16.00;99.90
5560;DHT22;2803;47.916;8.074;2022-09-09T00:53:02;16.20;99.90
5560;DHT22;2803;47.916;8.074;2022-09-09T00:55:40;16.60;99.90
5560;DHT22;2803;47.916;8.074;2022-09-09T00:58:09;16.40;99.90
5560;DHT22;2803;47.916;8.074;2022-09-09T01:00:42;16.60;99.90
5560;DHT22;2803;47.916;8.074;2022-09-09T01:03:19;16.60;99.90
5560;DHT22;2803;47.916;8.074;2022-09-09T01:06:00;16.80;99.90
5560;DHT22;2803;47.916;8.074;2022-09-09T01:08:39;16.40;99.90
5560;DHT22;2803;47.916;8.074;2022-09-09T01:11:13;16.60;99.90
5560;DHT22;2803;47.916;8.074;2022-09-09T01:13:42;16.60;99.90
5560;DHT22;2803;47.916;8.074;2022-09-09T01:16:10;16.90;99.90
5560;DHT22;2803;47.916;8.074;2022-09-09T01:18:43;17.10;99.90
5560;DHT22;2803;47.916;8.074;2022-09-09T01:21:19;16.90;99.90
5560;DHT22;2803;47.916;8.074;2022-09-09T01:24:05;16.80;99.90
5560;DHT22;2803;47.916;8.074;2022-09-09T01:26:37;16.80;99.90
5560;DHT22;2803;47.916;8.074;2022-09-09T01:29:07;17.00;99.90
5560;DHT22;2803;47.916;8.074;2022-09-09T01:31:37;16.80;99.90
5560;DHT22;2803;47.916;8.074;2022-09-09T01:34:09;16.80;99.90
5560;DHT22;2803;47.916;8.074;2022-09-09T01:36:40;16.60;99.90
5560;DHT22;2803;47.916;8.074;2022-09-09T01:39:08;16.90;99.90
5560;DHT22;2803;47.916;8.074;2022-09-09T01:41:37;17.20;99.90
5560;DHT22;2803;47.916;8.074;2022-09-09T01:44:05;16.90;99.90
5560;DHT22;2803;47.916;8.074;2022-09-09T01:46:32;16.90;99.90
5560;DHT22;2803;47.916;8.074;2022-09-09T01:48:59;16.60;99.90
5560;DHT22;2803;47.916;8.074;2022-09-09T01:51:27;17.10;99.90
5560;DHT22;2803;47.916;8.074;2022-09-09T01:53:53;17.40;99.90
5560;DHT22;2803;47.916;8.074;2022-09-09T01:56:32;17.50;99.90
5560;DHT22;2803;47.916;8.074;2022-09-09T01:59:10;17.60;99.90
5560;DHT22;2803;47.916;8.074;2022-09-09T02:01:50;17.70;99.90
5560;DHT22;2803;47.916;8.074;2022-09-09T02:04:29;17.70;99.90
5560;DHT22;2803;47.916;8.074;2022-09-09T02:07:00;17.70;99.90
5560;DHT22;2803;47.916;8.074;2022-09-09T02:09:29;17.40;99.90
5560;DHT22;2803;47.916;8.074;2022-09-09T02:12:00;17.50;99.90
5560;DHT22;2803;47.916;8.074;2022-09-09T02:14:34;17.30;99.90
5560;DHT22;2803;47.916;8.074;2022-09-09T02:17:08;17.60;99.90
5560;DHT22;2803;47.916;8.074;2022-09-09T02:19:38;17.40;99.90
5560;DHT22;2803;47.916;8.074;2022-09-09T02:22:07;17.60;99.90
5560;DHT22;2803;47.916;8.074;2022-09-09T02:24:36;17.60;99.90
5560;DHT22;2803;47.916;8.074;2022-09-09T02:27:05;17.60;99.90
5560;DHT22;2803;47.916;8.074;2022-09-09T02:29:38;17.60;99.90
5560;DHT22;2803;47.916;8.074;2022-09-09T02:32:07;17.60;99.90
5560;DHT22;2803;47.916;8.074;2022-09-09T02:34:40;17.80;99.90
5560;DHT22;2803;47.916;8.074;2022-09-09T02:37:09;17.80;99.90
5560;DHT22;2803;47.916;8.074;2022-09-09T02:39:37;17.90;99.90
5560;DHT22;2803;47.916;8.074;2022-09-09T02:42:04;17.90;99.90
5560;DHT22;2803;47.916;8.074;2022-09-09T02:44:31;17.70;99.90
5560;DHT22;2803;47.916;8.074;2022-09-09T02:47:09;17.40;99.90
5560;DHT22;2803;47.916;8.074;2022-09-09T02:49:45;17.50;99.90
5560;DHT22;2803;47.916;8.074;2022-09-09T02:52:19;17.10;99.90
5560;DHT22;2803;47.916;8.074;2022-09-09T02:54:49;17.30;99.90
5560;DHT22;2803;47.916;8.074;2022-09-09T02:57:22;17.10;99.90
5560;DHT22;2803;47.916;8.074;2022-09-09T02:59:50;17.40;99.90
5560;DHT22;2803;47.916;8.074;2022-09-09T03:02:19;17.60;99.90
5560;DHT22;2803;47.916;8.074;2022-09-09T03:04:46;17.20;99.90
5560;DHT22;2803;47.916;8.074;2022-09-09T03:07:16;17.00;99.90
5560;DHT22;2803;47.916;8.074;2022-09-09T03:09:42;16.80;99.90
5560;DHT22;2803;47.916;8.074;2022-09-09T03:12:09;17.00;99.90
5560;DHT22;2803;47.916;8.074;2022-09-09T03:14:36;17.40;99.90
5560;DHT22;2803;47.916;8.074;2022-09-09T03:17:03;17.50;99.90
5560;DHT22;2803;47.916;8.074;2022-09-09T03:19:31;17.60;99.90
5560;DHT22;2803;47.916;8.074;2022-09-09T03:21:58;17.70;99.90
5560;DHT22;2803;47.916;8.074;2022-09-09T03:24:25;17.80;99.90
5560;DHT22;2803;47.916;8.074;2022-09-09T03:26:52;17.90;99.90
5560;DHT22;2803;47.916;8.074;2022-09-09T03:29:19;17.60;99.90
5560;DHT22;2803;47.916;8.074;2022-09-09T03:31:45;17.80;99.90
5560;DHT22;2803;47.916;8.074;2022-09-09T03:34:12;17.90;99.90
5560;DHT22;2803;47.916;8.074;2022-09-09T03:36:40;17.90;99.90
5560;DHT22;2803;47.916;8.074;2022-09-09T03:39:07;18.00;99.90
5560;DHT22;2803;47.916;8.074;2022-09-09T03:41:34;18.00;99.90
5560;DHT22;2803;47.916;8.074;2022-09-09T03:44:00;18.10;99.90
5560;DHT22;2803;47.916;8.074;2022-09-09T03:46:27;18.20;99.90
5560;DHT22;2803;47.916;8.074;2022-09-09T03:48:53;18.10;99.90
5560;DHT22;2803;47.916;8.074;2022-09-09T03:51:20;18.10;99.90
5560;DHT22;2803;47.916;8.074;2022-09-09T03:53:49;18.00;99.90
5560;DHT22;2803;47.916;8.074;2022-09-09T03:56:15;17.80;99.90
5560;DHT22;2803;47.916;8.074;2022-09-09T03:58:42;17.60;99.90
5560;DHT22;2803;47.916;8.074;2022-09-09T04:01:10;17.40;99.90
5560;DHT22;2803;47.916;8.074;2022-09-09T04:03:38;17.70;99.90
5560;DHT22;2803;47.916;8.074;2022-09-09T04:06:07;17.80;99.90
5560;DHT22;2803;47.916;8.074;2022-09-09T04:08:35;17.50;99.90
5560;DHT22;2803;47.916;8.074;2022-09-09T04:11:04;17.60;99.90
5560;DHT22;2803;47.916;8.074;2022-09-09T04:13:31;17.60;99.90
5560;DHT22;2803;47.916;8.074;2022-09-09T04:16:00;17.50;99.90
5560;DHT22;2803;47.916;8.074;2022-09-09T04:18:27;17.50;99.90
5560;DHT22;2803;47.916;8.074;2022-09-09T04:20:54;17.80;99.90
5560;DHT22;2803;47.916;8.074;2022-09-09T04:23:23;17.90;99.90
5560;DHT22;2803;47.916;8.074;2022-09-09T04:25:52;18.00;99.90
5560;DHT22;2803;47.916;8.074;2022-09-09T04:28:21;18.10;99.90
5560;DHT22;2803;47.916;8.074;2022-09-09T04:30:49;18.10;99.90
5560;DHT22;2803;47.916;8.074;2022-09-09T04:33:17;18.00;99.90
5560;DHT22;2803;47.916;8.074;2022-09-09T04:35:44;17.70;99.90
5560;DHT22;2803;47.916;8.074;2022-09-09T04:38:11;17.50;99.90
5560;DHT22;2803;47.916;8.074;2022-09-09T04:40:38;17.70;99.90
5560;DHT22;2803;47.916;8.074;2022-09-09T04:43:08;17.80;99.90
5560;DHT22;2803;47.916;8.074;2022-09-09T04:45:37;17.90;99.90
5560;DHT22;2803;47.916;8.074;2022-09-09T04:48:05;18.00;99.90
5560;DHT22;2803;47.916;8.074;2022-09-09T04:50:32;17.90;99.90
5560;DHT22;2803;47.916;8.074;2022-09-09T04:53:00;18.00;99.90
5560;DHT22;2803;47.916;8.074;2022-09-09T04:55:27;18.00;99.90
5560;DHT22;2803;47.916;8.074;2022-09-09T04:57:54;18.10;99.90
5560;DHT22;2803;47.916;8.074;2022-09-09T05:00:20;18.00;99.90
5560;DHT22;2803;47.916;8.074;2022-09-09T05:02:48;18.00;99.90
5560;DHT22;2803;47.916;8.074;2022-09-09T05:05:15;18.10;99.90
5560;DHT22;2803;47.916;8.074;2022-09-09T05:07:42;18.10;99.90
5560;DHT22;2803;47.916;8.074;2022-09-09T05:10:09;18.00;99.90
5560;DHT22;2803;47.916;8.074;2022-09-09T05:12:36;18.10;99.90
5560;DHT22;2803;47.916;8.074;2022-09-09T05:15:03;17.80;99.90
5560;DHT22;2803;47.916;8.074;2022-09-09T05:17:30;17.40;99.90
5560;DHT22;2803;47.916;8.074;2022-09-09T05:19:58;17.60;99.90
5560;DHT22;2803;47.916;8.074;2022-09-09T05:22:24;17.80;99.90
5560;DHT22;2803;47.916;8.074;2022-09-09T05:24:51;17.80;99.90
5560;DHT22;2803;47.916;8.074;2022-09-09T05:27:18;17.60;99.90
5560;DHT22;2803;47.916;8.074;2022-09-09T05:29:45;17.70;99.90
5560;DHT22;2803;47.916;8.074;2022-09-09T05:32:13;17.90;99.90
5560;DHT22;2803;47.916;8.074;2022-09-09T05:34:40;18.10;99.90
5560;DHT22;2803;47.916;8.074;2022-09-09T05:37:08;18.10;99.90
5560;DHT22;2803;47.916;8.074;2022-09-09T05:39:34;18.10;99.90
5560;DHT22;2803;47.916;8.074;2022-09-09T05:42:02;17.70;99.90
5560;DHT22;2803;47.916;8.074;2022-09-09T05:44:30;17.80;99.90
5560;DHT22;2803;47.916;8.074;2022-09-09T05:46:56;17.50;99.90
5560;DHT22;2803;47.916;8.074;2022-09-09T05:49:23;17.40;99.90
5560;DHT22;2803;47.916;8.074;2022-09-09T05:51:50;17.70;99.90
5560;DHT22;2803;47.916;8.074;2022-09-09T05:54:18;17.90;99.90
5560;DHT22;2803;47.916;8.074;2022-09-09T05:56:44;18.10;99.90
5560;DHT22;2803;47.916;8.074;2022-09-09T05:59:11;18.10;99.90
5560;DHT22;2803;47.916;8.074;2022-09-09T06:01:38;18.00;99.90
5560;DHT22;2803;47.916;8.074;2022-09-09T06:04:06;18.10;99.90
5560;DHT22;2803;47.916;8.074;2022-09-09T06:06:35;18.00;99.90
5560;DHT22;2803;47.916;8.074;2022-09-09T06:09:04;18.00;99.90
5560;DHT22;2803;47.916;8.074;2022-09-09T06:11:33;18.20;99.90
5560;DHT22;2803;47.916;8.074;2022-09-09T06:14:02;18.30;99.90
5560;DHT22;2803;47.916;8.074;2022-09-09T06:16:29;18.30;99.90
5560;DHT22;2803;47.916;8.074;2022-09-09T06:18:58;18.50;99.90
5560;DHT22;2803;47.916;8.074;2022-09-09T06:21:26;18.50;99.90
5560;DHT22;2803;47.916;8.074;2022-09-09T06:23:53;18.50;99.90
5560;DHT22;2803;47.916;8.074;2022-09-09T06:26:22;18.50;99.90
5560;DHT22;2803;47.916;8.074;2022-09-09T06:28:53;18.50;99.90
5560;DHT22;2803;47.916;8.074;2022-09-09T06:31:21;18.50;99.90
5560;DHT22;2803;47.916;8.074;2022-09-09T06:33:49;18.50;99.90
5560;DHT22;2803;47.916;8.074;2022-09-09T06:36:18;18.40;99.90
5560;DHT22;2803;47.916;8.074;2022-09-09T06:38:45;18.40;99.90
5560;DHT22;2803;47.916;8.074;2022-09-09T06:41:13;18.50;99.90
5560;DHT22;2803;47.916;8.074;2022-09-09T06:43:41;18.20;99.90
5560;DHT22;2803;47.916;8.074;2022-09-09T06:46:11;18.20;99.90
5560;DHT22;2803;47.916;8.074;2022-09-09T06:48:39;18.30;99.90
5560;DHT22;2803;47.916;8.074;2022-09-09T06:51:09;18.40;99.90
5560;DHT22;2803;47.916;8.074;2022-09-09T06:53:37;18.50;99.90
5560;DHT22;2803;47.916;8.074;2022-09-09T06:56:18;18.20;99.90
5560;DHT22;2803;47.916;8.074;2022-09-09T06:58:46;17.70;99.90
5560;DHT22;2803;47.916;8.074;2022-09-09T07:01:17;18.00;99.90
5560;DHT22;2803;47.916;8.074;2022-09-09T07:03:46;18.30;99.90
5560;DHT22;2803;47.916;8.074;2022-09-09T07:06:14;18.30;99.90
5560;DHT22;2803;47.916;8.074;2022-09-09T07:08:42;18.40;99.90
5560;DHT22;2803;47.916;8.074;2022-09-09T07:11:09;18.40;99.90
5560;DHT22;2803;47.916;8.074;2022-09-09T07:13:36;18.50;99.90
5560;DHT22;2803;47.916;8.074;2022-09-09T07:16:04;18.60;99.90
5560;DHT22;2803;47.916;8.074;2022-09-09T07:18:32;18.50;99.90
5560;DHT22;2803;47.916;8.074;2022-09-09T07:21:01;18.30;99.90
5560;DHT22;2803;47.916;8.074;2022-09-09T07:23:28;18.60;99.90
5560;DHT22;2803;47.916;8.074;2022-09-09T07:25:55;18.60;99.90
5560;DHT22;2803;47.916;8.074;2022-09-09T07:28:22;18.80;99.90
5560;DHT22;2803;47.916;8.074;2022-09-09T07:30:57;18.90;99.90
5560;DHT22;2803;47.916;8.074;2022-09-09T07:33:24;18.90;99.90
5560;DHT22;2803;47.916;8.074;2022-09-09T07:35:52;18.80;99.90
5560;DHT22;2803;47.916;8.074;2022-09-09T07:38:20;19.00;99.90
5560;DHT22;2803;47.916;8.074;2022-09-09T07:40:48;18.80;99.90
5560;DHT22;2803;47.916;8.074;2022-09-09T07:43:14;18.90;99.90
5560;DHT22;2803;47.916;8.074;2022-09-09T07:45:42;19.10;99.90
5560;DHT22;2803;47.916;8.074;2022-09-09T07:48:09;19.30;99.90
5560;DHT22;2803;47.916;8.074;2022-09-09T07:50:36;19.20;99.90
5560;DHT22;2803;47.916;8.074;2022-09-09T07:53:04;19.30;99.90
5560;DHT22;2803;47.916;8.074;2022-09-09T07:55:31;19.40;99.90
5560;DHT22;2803;47.916;8.074;2022-09-09T07:57:58;19.30;99.90
5560;DHT22;2803;47.916;8.074;2022-09-09T08:00:24;19.20;99.90
5560;DHT22;2803;47.916;8.074;2022-09-09T08:02:54;19.30;99.90
5560;DHT22;2803;47.916;8.074;2022-09-09T08:05:21;19.00;99.90
5560;DHT22;2803;47.916;8.074;2022-09-09T08:07:48;19.10;99.90
5560;DHT22;2803;47.916;8.074;2022-09-09T08:10:16;19.00;99.90
5560;DHT22;2803;47.916;8.074;2022-09-09T08:12:43;18.90;99.90
5560;DHT22;2803;47.916;8.074;2022-09-09T08:15:11;18.80;99.90
5560;DHT22;2803;47.916;8.074;2022-09-09T08:17:37;18.60;99.90
5560;DHT22;2803;47.916;8.074;2022-09-09T08:20:05;18.50;99.90
5560;DHT22;2803;47.916;8.074;2022-09-09T08:22:32;18.10;99.90
5560;DHT22;2803;47.916;8.074;2022-09-09T08:24:59;18.40;99.90
5560;DHT22;2803;47.916;8.074;2022-09-09T08:27:28;18.60;99.90
5560;DHT22;2803;47.916;8.074;2022-09-09T08:29:55;18.70;99.90
5560;DHT22;2803;47.916;8.074;2022-09-09T08:32:22;18.70;99.90
5560;DHT22;2803;47.916;8.074;2022-09-09T08:34:48;18.70;99.90
5560;DHT22;2803;47.916;8.074;2022-09-09T08:37:16;18.90;99.90
5560;DHT22;2803;47.916;8.074;2022-09-09T08:39:43;19.00;99.90
5560;DHT22;2803;47.916;8.074;2022-09-09T08:42:29;19.10;99.90
5560;DHT22;2803;47.916;8.074;2022-09-09T08:45:09;18.90;99.90
5560;DHT22;2803;47.916;8.074;2022-09-09T08:47:45;18.70;99.90
5560;DHT22;2803;47.916;8.074;2022-09-09T08:50:21;19.10;99.90
5560;DHT22;2803;47.916;8.074;2022-09-09T08:52:54;18.80;99.90
5560;DHT22;2803;47.916;8.074;2022-09-09T08:55:28;19.00;99.90
5560;DHT22;2803;47.916;8.074;2022-09-09T08:58:08;19.50;99.90
5560;DHT22;2803;47.916;8.074;2022-09-09T09:00:40;19.60;99.90
5560;DHT22;2803;47.916;8.074;2022-09-09T09:03:18;19.60;99.90
5560;DHT22;2803;47.916;8.074;2022-09-09T09:05:48;19.60;99.90
5560;DHT22;2803;47.916;8.074;2022-09-09T09:08:20;19.80;99.90
5560;DHT22;2803;47.916;8.074;2022-09-09T09:10:51;20.40;99.90
5560;DHT22;2803;47.916;8.074;2022-09-09T09:13:34;20.70;99.90
5560;DHT22;2803;47.916;8.074;2022-09-09T09:16:06;20.80;99.90
5560;DHT22;2803;47.916;8.074;2022-09-09T09:18:36;21.40;99.90
5560;DHT22;2803;47.916;8.074;2022-09-09T09:21:06;21.40;99.90
5560;DHT22;2803;47.916;8.074;2022-09-09T09:23:42;21.60;99.90
5560;DHT22;2803;47.916;8.074;2022-09-09T09:26:10;21.60;99.90
5560;DHT22;2803;47.916;8.074;2022-09-09T09:28:39;21.70;99.90
5560;DHT22;2803;47.916;8.074;2022-09-09T09:31:09;21.70;99.90
5560;DHT22;2803;47.916;8.074;2022-09-09T09:33:45;21.40;99.90
5560;DHT22;2803;47.916;8.074;2022-09-09T09:36:13;21.90;99.90
5560;DHT22;2803;47.916;8.074;2022-09-09T09:38:52;21.90;99.90
5560;DHT22;2803;47.916;8.074;2022-09-09T09:41:29;21.90;99.90
5560;DHT22;2803;47.916;8.074;2022-09-09T09:43:57;21.90;99.90
5560;DHT22;2803;47.916;8.074;2022-09-09T09:46:25;22.00;99.90
5560;DHT22;2803;47.916;8.074;2022-09-09T09:49:00;22.10;99.90
5560;DHT22;2803;47.916;8.074;2022-09-09T09:51:29;22.50;99.90
5560;DHT22;2803;47.916;8.074;2022-09-09T09:54:09;22.60;99.90
5560;DHT22;2803;47.916;8.074;2022-09-09T09:56:40;22.70;99.90
5560;DHT22;2803;47.916;8.074;2022-09-09T09:59:21;22.70;99.90
5560;DHT22;2803;47.916;8.074;2022-09-09T10:01:48;22.80;99.90
5560;DHT22;2803;47.916;8.074;2022-09-09T10:04:17;23.00;99.90
5560;DHT22;2803;47.916;8.074;2022-09-09T10:06:45;23.10;99.90
5560;DHT22;2803;47.916;8.074;2022-09-09T10:09:22;23.40;99.90
5560;DHT22;2803;47.916;8.074;2022-09-09T10:11:55;24.10;99.90
5560;DHT22;2803;47.916;8.074;2022-09-09T10:14:30;24.50;99.90
5560;DHT22;2803;47.916;8.074;2022-09-09T10:17:12;24.70;99.90
5560;DHT22;2803;47.916;8.074;2022-09-09T10:19:50;24.40;99.90
5560;DHT22;2803;47.916;8.074;2022-09-09T10:22:26;23.90;99.90
5560;DHT22;2803;47.916;8.074;2022-09-09T10:25:09;23.80;99.90
5560;DHT22;2803;47.916;8.074;2022-09-09T10:27:49;23.90;99.90
5560;DHT22;2803;47.916;8.074;2022-09-09T10:30:23;24.00;99.60
5560;DHT22;2803;47.916;8.074;2022-09-09T10:32:57;23.80;99.40
5560;DHT22;2803;47.916;8.074;2022-09-09T10:35:29;24.10;99.40
5560;DHT22;2803;47.916;8.074;2022-09-09T10:38:14;24.30;99.60
5560;DHT22;2803;47.916;8.074;2022-09-09T10:40:47;24.40;99.90
5560;DHT22;2803;47.916;8.074;2022-09-09T10:43:32;24.40;99.90
5560;DHT22;2803;47.916;8.074;2022-09-09T10:46:09;24.10;99.20
5560;DHT22;2803;47.916;8.074;2022-09-09T10:48:50;24.00;99.30
5560;DHT22;2803;47.916;8.074;2022-09-09T10:51:26;23.70;99.50
5560;DHT22;2803;47.916;8.074;2022-09-09T10:54:09;24.10;99.90
5560;DHT22;2803;47.916;8.074;2022-09-09T10:56:39;24.50;98.80
5560;DHT22;2803;47.916;8.074;2022-09-09T10:59:13;25.00;99.20
5560;DHT22;2803;47.916;8.074;2022-09-09T11:01:45;25.50;98.40
5560;DHT22;2803;47.916;8.074;2022-09-09T11:04:17;25.40;98.40
5560;DHT22;2803;47.916;8.074;2022-09-09T11:06:49;25.00;99.30
5560;DHT22;2803;47.916;8.074;2022-09-09T11:09:21;24.30;97.90
5560;DHT22;2803;47.916;8.074;2022-09-09T11:11:52;24.40;97.80
5560;DHT22;2803;47.916;8.074;2022-09-09T11:14:26;24.80;96.40
5560;DHT22;2803;47.916;8.074;2022-09-09T11:16:57;24.90;97.20
5560;DHT22;2803;47.916;8.074;2022-09-09T11:19:30;24.60;98.60
5560;DHT22;2803;47.916;8.074;2022-09-09T11:21:58;24.10;98.00
5560;DHT22;2803;47.916;8.074;2022-09-09T11:24:29;23.90;99.90
5560;DHT22;2803;47.916;8.074;2022-09-09T11:27:01;23.60;99.90
5560;DHT22;2803;47.916;8.074;2022-09-09T11:32:44;22.90;99.90
5560;DHT22;2803;47.916;8.074;2022-09-09T11:35:23;22.70;99.90
5560;DHT22;2803;47.916;8.074;2022-09-09T11:38:03;22.70;99.90
5560;DHT22;2803;47.916;8.074;2022-09-09T11:40:32;22.30;99.90
5560;DHT22;2803;47.916;8.074;2022-09-09T11:43:02;22.20;99.90
5560;DHT22;2803;47.916;8.074;2022-09-09T11:45:31;22.30;99.90
5560;DHT22;2803;47.916;8.074;2022-09-09T11:48:03;22.50;99.90
5560;DHT22;2803;47.916;8.074;2022-09-09T11:50:33;22.30;99.90
5560;DHT22;2803;47.916;8.074;2022-09-09T11:53:18;22.30;99.90
5560;DHT22;2803;47.916;8.074;2022-09-09T11:55:48;22.10;99.90
5560;DHT22;2803;47.916;8.074;2022-09-09T11:58:26;21.80;99.90
5560;DHT22;2803;47.916;8.074;2022-09-09T12:00:54;21.90;99.90
5560;DHT22;2803;47.916;8.074;2022-09-09T12:03:39;21.50;99.90
5560;DHT22;2803;47.916;8.074;2022-09-09T12:06:11;20.60;99.90
5560;DHT22;2803;47.916;8.074;2022-09-09T12:08:41;20.50;99.90
5560;DHT22;2803;47.916;8.074;2022-09-09T12:11:11;21.00;99.90
5560;DHT22;2803;47.916;8.074;2022-09-09T12:13:37;21.10;99.90
5560;DHT22;2803;47.916;8.074;2022-09-09T12:16:04;21.20;99.90
5560;DHT22;2803;47.916;8.074;2022-09-09T12:18:33;21.40;99.90
5560;DHT22;2803;47.916;8.074;2022-09-09T12:21:07;21.30;99.90
5560;DHT22;2803;47.916;8.074;2022-09-09T12:23:44;21.30;99.90
5560;DHT22;2803;47.916;8.074;2022-09-09T12:26:28;21.00;99.90
5560;DHT22;2803;47.916;8.074;2022-09-09T12:29:04;20.50;99.90
5560;DHT22;2803;47.916;8.074;2022-09-09T12:31:38;20.30;99.90
5560;DHT22;2803;47.916;8.074;2022-09-09T12:34:11;20.10;99.90
5560;DHT22;2803;47.916;8.074;2022-09-09T12:36:41;20.10;99.90
5560;DHT22;2803;47.916;8.074;2022-09-09T12:39:16;20.10;99.90
5560;DHT22;2803;47.916;8.074;2022-09-09T12:41:51;20.30;99.90
5560;DHT22;2803;47.916;8.074;2022-09-09T12:44:21;20.50;99.90
5560;DHT22;2803;47.916;8.074;2022-09-09T12:46:49;19.90;99.90
5560;DHT22;2803;47.916;8.074;2022-09-09T12:49:27;20.40;99.90
5560;DHT22;2803;47.916;8.074;2022-09-09T12:51:57;21.00;99.90
5560;DHT22;2803;47.916;8.074;2022-09-09T12:54:25;21.50;99.90
5560;DHT22;2803;47.916;8.074;2022-09-09T12:56:53;21.30;99.90
5560;DHT22;2803;47.916;8.074;2022-09-09T12:59:23;21.40;99.90
5560;DHT22;2803;47.916;8.074;2022-09-09T13:01:56;21.10;99.90
5560;DHT22;2803;47.916;8.074;2022-09-09T13:04:23;21.10;99.90
5560;DHT22;2803;47.916;8.074;2022-09-09T13:06:49;21.30;99.90
5560;DHT22;2803;47.916;8.074;2022-09-09T13:09:19;21.10;99.90
5560;DHT22;2803;47.916;8.074;2022-09-09T13:11:48;21.30;99.90
5560;DHT22;2803;47.916;8.074;2022-09-09T13:14:18;21.70;99.90
5560;DHT22;2803;47.916;8.074;2022-09-09T13:16:54;21.30;99.90
5560;DHT22;2803;47.916;8.074;2022-09-09T13:19:22;21.30;99.90
5560;DHT22;2803;47.916;8.074;2022-09-09T13:21:51;21.50;99.90
5560;DHT22;2803;47.916;8.074;2022-09-09T13:24:26;21.70;99.90
5560;DHT22;2803;47.916;8.074;2022-09-09T13:26:55;21.80;99.90
5560;DHT22;2803;47.916;8.074;2022-09-09T13:29:22;21.50;99.90
5560;DHT22;2803;47.916;8.074;2022-09-09T13:31:50;21.40;99.90
5560;DHT22;2803;47.916;8.074;2022-09-09T13:34:27;21.80;99.90
5560;DHT22;2803;47.916;8.074;2022-09-09T13:36:57;21.60;99.90
5560;DHT22;2803;47.916;8.074;2022-09-09T13:39:26;21.70;99.90
5560;DHT22;2803;47.916;8.074;2022-09-09T13:41:53;21.40;99.90
5560;DHT22;2803;47.916;8.074;2022-09-09T13:44:22;20.70;99.90
5560;DHT22;2803;47.916;8.074;2022-09-09T13:47:00;20.10;99.90
5560;DHT22;2803;47.916;8.074;2022-09-09T13:49:29;20.10;99.90
5560;DHT22;2803;47.916;8.074;2022-09-09T13:52:04;20.30;99.90
5560;DHT22;2803;47.916;8.074;2022-09-09T13:54:34;20.40;99.90
5560;DHT22;2803;47.916;8.074;2022-09-09T13:57:01;20.80;99.90
5560;DHT22;2803;47.916;8.074;2022-09-09T13:59:29;20.10;99.90
5560;DHT22;2803;47.916;8.074;2022-09-09T14:01:57;19.70;99.90
5560;DHT22;2803;47.916;8.074;2022-09-09T14:04:23;19.90;99.90
5560;DHT22;2803;47.916;8.074;2022-09-09T14:06:50;19.70;99.90
5560;DHT22;2803;47.916;8.074;2022-09-09T14:09:18;20.10;99.90
5560;DHT22;2803;47.916;8.074;2022-09-09T14:11:46;20.30;99.90
5560;DHT22;2803;47.916;8.074;2022-09-09T14:14:12;20.10;99.90
5560;DHT22;2803;47.916;8.074;2022-09-09T14:16:39;19.80;99.90
5560;DHT22;2803;47.916;8.074;2022-09-09T14:19:07;19.00;99.90
5560;DHT22;2803;47.916;8.074;2022-09-09T14:21:34;18.90;99.90
5560;DHT22;2803;47.916;8.074;2022-09-09T14:24:00;19.00;99.90
5560;DHT22;2803;47.916;8.074;2022-09-09T14:26:27;19.20;99.90
5560;DHT22;2803;47.916;8.074;2022-09-09T14:28:56;19.30;99.90
5560;DHT22;2803;47.916;8.074;2022-09-09T14:31:24;18.80;99.90
5560;DHT22;2803;47.916;8.074;2022-09-09T14:33:51;19.10;99.90
5560;DHT22;2803;47.916;8.074;2022-09-09T14:36:18;19.20;99.90
5560;DHT22;2803;47.916;8.074;2022-09-09T14:38:45;19.20;99.90
5560;DHT22;2803;47.916;8.074;2022-09-09T14:41:13;19.50;99.90
5560;DHT22;2803;47.916;8.074;2022-09-09T14:43:40;19.60;99.90
5560;DHT22;2803;47.916;8.074;2022-09-09T14:46:10;19.70;99.90
5560;DHT22;2803;47.916;8.074;2022-09-09T14:48:37;19.80;99.90
5560;DHT22;2803;47.916;8.074;2022-09-09T14:51:07;19.60;99.90
5560;DHT22;2803;47.916;8.074;2022-09-09T14:53:33;19.60;99.90
5560;DHT22;2803;47.916;8.074;2022-09-09T14:56:05;19.70;99.90
5560;DHT22;2803;47.916;8.074;2022-09-09T14:58:31;19.90;99.90
5560;DHT22;2803;47.916;8.074;2022-09-09T15:01:02;19.40;99.90
5560;DHT22;2803;47.916;8.074;2022-09-09T15:03:32;19.30;99.90
5560;DHT22;2803;47.916;8.074;2022-09-09T15:06:04;19.40;99.90
5560;DHT22;2803;47.916;8.074;2022-09-09T15:08:30;19.70;99.90
5560;DHT22;2803;47.916;8.074;2022-09-09T15:10:59;19.90;99.90
5560;DHT22;2803;47.916;8.074;2022-09-09T15:13:26;19.90;99.90
5560;DHT22;2803;47.916;8.074;2022-09-09T15:15:53;19.70;99.90
5560;DHT22;2803;47.916;8.074;2022-09-09T15:18:20;19.90;99.90
5560;DHT22;2803;47.916;8.074;2022-09-09T15:20:48;20.10;99.90
5560;DHT22;2803;47.916;8.074;2022-09-09T15:23:15;20.20;99.90
5560;DHT22;2803;47.916;8.074;2022-09-09T15:25:50;19.80;99.90
5560;DHT22;2803;47.916;8.074;2022-09-09T15:28:17;19.60;99.90
5560;DHT22;2803;47.916;8.074;2022-09-09T15:30:47;19.70;99.90
5560;DHT22;2803;47.916;8.074;2022-09-09T15:33:14;19.90;99.90
5560;DHT22;2803;47.916;8.074;2022-09-09T15:35:40;20.20;99.90
5560;DHT22;2803;47.916;8.074;2022-09-09T15:38:08;20.20;99.90
5560;DHT22;2803;47.916;8.074;2022-09-09T15:40:35;20.10;99.90
5560;DHT22;2803;47.916;8.074;2022-09-09T15:43:01;20.00;99.90
5560;DHT22;2803;47.916;8.074;2022-09-09T15:45:31;20.00;99.90
5560;DHT22;2803;47.916;8.074;2022-09-09T15:47:59;19.50;99.90
5560;DHT22;2803;47.916;8.074;2022-09-09T15:50:25;19.60;99.90
5560;DHT22;2803;47.916;8.074;2022-09-09T15:52:52;19.50;99.90
5560;DHT22;2803;47.916;8.074;2022-09-09T15:55:20;20.00;99.90
5560;DHT22;2803;47.916;8.074;2022-09-09T15:57:47;20.10;99.90
5560;DHT22;2803;47.916;8.074;2022-09-09T16:00:14;20.10;99.90
5560;DHT22;2803;47.916;8.074;2022-09-09T16:02:40;19.80;99.90
5560;DHT22;2803;47.916;8.074;2022-09-09T16:05:08;19.70;99.90
5560;DHT22;2803;47.916;8.074;2022-09-09T16:07:34;19.50;99.90
5560;DHT22;2803;47.916;8.074;2022-09-09T16:10:01;19.80;99.90
5560;DHT22;2803;47.916;8.074;2022-09-09T16:12:29;19.70;99.90
5560;DHT22;2803;47.916;8.074;2022-09-09T16:14:56;19.80;99.90
5560;DHT22;2803;47.916;8.074;2022-09-09T16:17:22;19.80;99.90
5560;DHT22;2803;47.916;8.074;2022-09-09T16:19:49;19.40;99.90
5560;DHT22;2803;47.916;8.074;2022-09-09T16:22:15;19.00;99.90
5560;DHT22;2803;47.916;8.074;2022-09-09T16:24:43;19.10;99.90